createdAt,value
2023-03-26T00:01:02.037Z,1.83
2023-03-26T00:03:29.986Z,1.60
2023-03-26T00:06:10.759Z,1.92
2023-03-26T00:08:38.779Z,2.20
2023-03-26T00:11:06.834Z,2.08
2023-03-26T00:13:34.351Z,2.63
2023-03-26T00:16:01.831Z,2.22
2023-03-26T00:18:31.836Z,2.00
2023-03-26T00:20:59.365Z,2.03
2023-03-26T00:23:27.043Z,2.22
2023-03-26T00:25:54.677Z,3.05
2023-03-26T00:28:22.897Z,1.90
2023-03-26T00:30:50.551Z,2.88
2023-03-26T00:33:17.953Z,2.20
2023-03-26T00:35:47.183Z,2.55
2023-03-26T00:38:15.612Z,2.40
2023-03-26T00:40:47.949Z,2.08
2023-03-26T00:43:26.422Z,2.25
2023-03-26T00:45:54.899Z,2.30
2023-03-26T00:48:28.973Z,2.13
2023-03-26T00:51:01.761Z,2.45
2023-03-26T00:53:28.872Z,2.72
2023-03-26T00:56:00.227Z,2.55
2023-03-26T00:58:27.963Z,2.40
2023-03-26T01:00:57.464Z,2.33
2023-03-26T01:03:25.792Z,2.38
2023-03-26T01:06:02.632Z,3.13
2023-03-26T01:08:36.150Z,3.17
2023-03-26T01:11:07.302Z,3.00
2023-03-26T01:13:36.600Z,3.33
2023-03-26T01:16:05.518Z,3.20
2023-03-26T01:18:41.193Z,3.08
2023-03-26T01:21:09.681Z,3.42
2023-03-26T01:23:48.864Z,3.40
2023-03-26T01:26:23.293Z,3.17
2023-03-26T01:28:53.229Z,3.50
2023-03-26T01:31:29.851Z,3.40
2023-03-26T01:33:57.021Z,3.78
2023-03-26T01:36:33.297Z,3.53
2023-03-26T01:39:06.073Z,3.92
2023-03-26T01:41:39.021Z,3.22
2023-03-26T01:44:26.116Z,3.97
2023-03-26T01:46:53.996Z,4.18
2023-03-26T01:49:21.503Z,3.33
2023-03-26T01:51:48.650Z,3.38
2023-03-26T01:54:17.483Z,4.68
2023-03-26T01:56:50.927Z,3.42
2023-03-26T01:59:28.792Z,3.90
2023-03-26T02:02:28.495Z,4.37
2023-03-26T02:04:55.863Z,3.28
2023-03-26T02:07:39.401Z,4.20
2023-03-26T02:10:13.247Z,3.70
2023-03-26T02:12:41.455Z,4.00
2023-03-26T02:15:08.957Z,3.60
2023-03-26T02:17:36.492Z,3.53
2023-03-26T02:20:06.597Z,3.90
2023-03-26T02:22:33.740Z,3.92
2023-03-26T02:25:00.953Z,3.15
2023-03-26T02:27:28.103Z,3.23
2023-03-26T02:29:55.210Z,3.47
2023-03-26T02:32:22.380Z,3.33
2023-03-26T02:34:51.393Z,3.63
2023-03-26T02:37:19.153Z,3.63
2023-03-26T02:39:46.462Z,3.10
2023-03-26T02:42:13.665Z,3.90
2023-03-26T02:44:40.928Z,4.50
2023-03-26T02:47:08.149Z,3.95
2023-03-26T02:49:35.400Z,3.58
2023-03-26T02:52:06.345Z,3.80
2023-03-26T02:54:36.992Z,4.10
2023-03-26T02:57:04.332Z,4.07
2023-03-26T02:59:31.551Z,4.28
2023-03-26T03:01:58.722Z,4.43
2023-03-26T03:04:25.985Z,4.33
2023-03-26T03:06:57.620Z,4.07
2023-03-26T03:09:25.189Z,4.97
2023-03-26T03:11:52.704Z,5.18
2023-03-26T03:14:20.244Z,5.53
2023-03-26T03:16:47.488Z,5.00
2023-03-26T03:19:14.981Z,5.13
2023-03-26T03:21:42.826Z,5.55
2023-03-26T03:24:11.617Z,5.03
2023-03-26T03:26:38.836Z,4.95
2023-03-26T03:29:06.008Z,4.73
2023-03-26T03:31:33.313Z,4.88
2023-03-26T03:34:00.413Z,4.70
2023-03-26T03:36:27.983Z,4.50
2023-03-26T03:38:55.348Z,4.32
2023-03-26T03:41:22.536Z,4.20
2023-03-26T03:43:50.100Z,4.95
2023-03-26T03:46:17.346Z,4.30
2023-03-26T03:48:49.533Z,5.30
2023-03-26T03:51:18.348Z,5.60
2023-03-26T03:53:46.125Z,5.23
2023-03-26T03:56:14.709Z,5.30
2023-03-26T03:58:42.264Z,5.35
2023-03-26T04:01:11.059Z,5.20
2023-03-26T04:03:39.038Z,5.05
2023-03-26T04:06:07.408Z,5.03
2023-03-26T04:08:34.874Z,4.95
2023-03-26T04:11:02.290Z,4.80
2023-03-26T04:13:29.635Z,5.18
2023-03-26T04:15:57.778Z,5.53
2023-03-26T04:18:26.304Z,4.93
2023-03-26T04:20:55.475Z,5.00
2023-03-26T04:23:23.309Z,4.80
2023-03-26T04:25:53.504Z,5.15
2023-03-26T04:28:42.234Z,5.85
2023-03-26T04:31:11.752Z,4.90
2023-03-26T04:33:39.328Z,5.05
2023-03-26T04:36:07.058Z,4.95
2023-03-26T04:38:53.316Z,4.85
2023-03-26T04:41:22.276Z,4.65
2023-03-26T04:43:50.660Z,4.63
2023-03-26T04:46:18.505Z,5.45
2023-03-26T04:48:45.743Z,4.85
2023-03-26T04:51:18.105Z,5.10
2023-03-26T04:53:59.416Z,5.07
2023-03-26T04:56:40.476Z,5.03
2023-03-26T04:59:08.085Z,5.07
2023-03-26T05:01:37.800Z,5.30
2023-03-26T05:04:05.282Z,4.72
2023-03-26T05:06:34.293Z,5.53
2023-03-26T05:09:02.225Z,6.00
2023-03-26T05:11:29.445Z,4.88
2023-03-26T05:13:57.541Z,5.45
2023-03-26T05:16:25.079Z,5.50
2023-03-26T05:18:52.603Z,5.40
2023-03-26T05:21:19.817Z,4.80
2023-03-26T05:23:47.012Z,5.53
2023-03-26T05:26:14.146Z,5.10
2023-03-26T05:28:41.389Z,4.80
2023-03-26T05:31:08.718Z,5.45
2023-03-26T05:33:36.157Z,5.30
2023-03-26T05:36:05.530Z,4.88
2023-03-26T05:38:32.763Z,5.43
2023-03-26T05:41:00.868Z,5.40
2023-03-26T05:43:28.326Z,4.70
2023-03-26T05:45:55.742Z,4.80
2023-03-26T05:48:23.217Z,4.70
2023-03-26T05:50:51.268Z,5.18
2023-03-26T05:53:18.922Z,5.07
2023-03-26T05:55:46.668Z,4.43
2023-03-26T05:58:14.371Z,5.40
2023-03-26T06:00:41.548Z,5.32
2023-03-26T06:03:12.895Z,5.40
2023-03-26T06:05:40.654Z,5.18
2023-03-26T06:08:08.402Z,5.30
2023-03-26T06:10:38.092Z,4.63
2023-03-26T06:13:05.344Z,4.78
2023-03-26T06:15:32.585Z,4.90
2023-03-26T06:17:59.742Z,5.72
2023-03-26T06:20:26.992Z,4.90
2023-03-26T06:22:54.193Z,4.80
2023-03-26T06:25:21.539Z,5.55
2023-03-26T06:27:48.699Z,4.97
2023-03-26T06:30:16.027Z,4.90
2023-03-26T06:32:43.197Z,4.97
2023-03-26T06:35:11.433Z,4.80
2023-03-26T06:37:38.644Z,4.60
2023-03-26T06:40:06.115Z,5.20
2023-03-26T06:43:07.627Z,4.82
2023-03-26T06:45:21.091Z,5.25
2023-03-26T06:47:48.318Z,4.60
2023-03-26T06:50:15.548Z,4.43
2023-03-26T06:52:42.654Z,4.75
2023-03-26T06:55:10.409Z,4.93
2023-03-26T06:57:37.844Z,5.32
2023-03-26T07:00:06.825Z,5.23
2023-03-26T07:02:34.035Z,4.93
2023-03-26T07:05:01.157Z,4.78
2023-03-26T07:07:28.289Z,5.00
2023-03-26T07:09:55.455Z,5.60
2023-03-26T07:12:22.611Z,4.50
2023-03-26T07:14:49.724Z,5.40
2023-03-26T07:17:16.813Z,5.78
2023-03-26T07:19:44.051Z,4.88
2023-03-26T07:22:21.368Z,4.70
2023-03-26T07:24:48.763Z,4.87
2023-03-26T07:27:18.922Z,5.28
2023-03-26T07:30:00.439Z,4.30
2023-03-26T07:32:37.810Z,4.03
2023-03-26T07:35:14.192Z,3.55
2023-03-26T07:37:41.676Z,3.30
2023-03-26T07:40:21.399Z,3.97
2023-03-26T07:43:01.289Z,3.70
2023-03-26T07:45:39.552Z,4.28
2023-03-26T07:48:21.172Z,4.18
2023-03-26T07:50:48.925Z,3.93
2023-03-26T07:53:16.254Z,4.13
2023-03-26T07:56:03.727Z,3.58
2023-03-26T07:58:43.002Z,3.22
2023-03-26T08:01:16.061Z,3.55
2023-03-26T08:03:46.555Z,3.70
2023-03-26T08:06:21.485Z,3.70
2023-03-26T08:08:51.422Z,3.53
2023-03-26T08:11:30.773Z,4.35
2023-03-26T08:14:13.723Z,4.28
2023-03-26T08:16:45.487Z,3.50
2023-03-26T08:19:28.062Z,3.97
2023-03-26T08:21:59.859Z,4.97
2023-03-26T08:24:46.403Z,4.30
2023-03-26T08:27:19.270Z,4.45
2023-03-26T08:29:50.147Z,3.90
2023-03-26T08:32:18.030Z,4.60
2023-03-26T08:34:46.042Z,4.90
2023-03-26T08:37:13.613Z,5.28
2023-03-26T08:39:42.137Z,5.85
2023-03-26T08:42:28.274Z,5.50
2023-03-26T08:45:14.010Z,5.95
2023-03-26T08:48:01.707Z,6.22
2023-03-26T08:50:47.820Z,6.40
2023-03-26T08:53:33.750Z,5.78
2023-03-26T08:56:01.300Z,5.60
2023-03-26T08:58:50.585Z,5.80
2023-03-26T09:01:41.814Z,5.78
2023-03-26T09:04:19.093Z,6.03
2023-03-26T09:06:46.289Z,5.57
2023-03-26T09:09:32.157Z,5.97
2023-03-26T09:12:02.249Z,5.70
2023-03-26T09:14:52.478Z,5.85
2023-03-26T09:17:19.549Z,6.53
2023-03-26T09:19:46.896Z,6.22
2023-03-26T09:22:32.905Z,6.10
2023-03-26T09:25:00.181Z,6.25
2023-03-26T09:27:27.382Z,6.53
2023-03-26T09:30:04.161Z,6.63
2023-03-26T09:32:51.348Z,8.65
2023-03-26T09:35:47.911Z,7.00
2023-03-26T09:38:30.389Z,7.45
2023-03-26T09:41:16.484Z,7.45
2023-03-26T09:44:02.560Z,12.63
2023-03-26T09:46:55.580Z,15.80
2023-03-26T09:49:38.104Z,6.70
2023-03-26T09:52:25.305Z,7.90
2023-03-26T09:54:52.393Z,5.43
2023-03-26T09:57:38.341Z,4.65
2023-03-26T10:00:10.164Z,4.57
2023-03-26T10:02:55.805Z,5.10
2023-03-26T10:05:34.250Z,6.15
2023-03-26T10:08:30.255Z,7.32
2023-03-26T10:11:07.927Z,4.97
2023-03-26T10:13:43.640Z,3.90
2023-03-26T10:16:29.708Z,4.90
2023-03-26T10:19:04.226Z,7.57
2023-03-26T10:21:31.373Z,7.45
2023-03-26T10:23:58.501Z,7.38
2023-03-26T10:26:28.694Z,7.25
2023-03-26T10:29:14.702Z,7.90
2023-03-26T10:32:00.604Z,8.20
2023-03-26T10:34:46.856Z,7.32
2023-03-26T10:37:40.004Z,6.95
2023-03-26T10:40:16.237Z,6.47
2023-03-26T10:43:02.023Z,6.27
2023-03-26T10:45:37.402Z,6.82
2023-03-26T10:48:13.784Z,7.18
2023-03-26T10:50:47.088Z,6.18
2023-03-26T10:53:17.212Z,7.07
2023-03-26T10:55:47.006Z,6.83
2023-03-26T10:58:26.058Z,6.32
2023-03-26T11:01:06.886Z,6.60
2023-03-26T11:03:44.383Z,5.65
2023-03-26T11:06:11.503Z,5.28
2023-03-26T11:08:45.769Z,5.70
2023-03-26T11:11:36.153Z,6.68
2023-03-26T11:14:10.115Z,5.30
2023-03-26T11:16:43.383Z,8.40
2023-03-26T11:19:26.120Z,5.35
2023-03-26T11:22:02.419Z,4.17
2023-03-26T11:24:44.490Z,5.22
2023-03-26T11:27:28.408Z,7.53
2023-03-26T11:30:07.800Z,9.23
2023-03-26T11:32:43.813Z,7.43
2023-03-26T11:35:39.800Z,3.90
2023-03-26T11:38:13.166Z,4.10
2023-03-26T11:40:42.176Z,3.83
2023-03-26T11:43:12.408Z,3.70
2023-03-26T11:45:42.156Z,3.15
2023-03-26T11:48:12.894Z,5.80
2023-03-26T11:50:44.821Z,3.78
2023-03-26T11:53:13.516Z,4.75
2023-03-26T11:55:42.549Z,3.53
2023-03-26T11:58:15.690Z,11.38
2023-03-26T12:00:45.160Z,6.53
2023-03-26T12:03:16.057Z,10.38
2023-03-26T12:05:51.021Z,6.50
2023-03-26T12:08:19.550Z,4.22
2023-03-26T12:10:51.531Z,3.92
2023-03-26T12:13:21.931Z,3.63
2023-03-26T12:15:50.297Z,4.03
2023-03-26T12:18:24.988Z,3.85
2023-03-26T12:21:04.510Z,4.65
2023-03-26T12:23:40.282Z,5.15
2023-03-26T12:26:18.296Z,5.50
2023-03-26T12:28:46.686Z,3.30
2023-03-26T12:31:20.376Z,4.55
2023-03-26T12:34:06.344Z,4.32
2023-03-26T12:36:35.847Z,3.65
2023-03-26T12:39:16.571Z,5.40
2023-03-26T12:44:42.100Z,4.25
2023-03-26T12:44:58.901Z,3.78
2023-03-26T12:47:57.877Z,2.70
2023-03-26T12:50:16.240Z,3.50
2023-03-26T12:52:46.811Z,3.13
2023-03-26T12:55:32.832Z,3.17
2023-03-26T12:58:13.848Z,3.38
2023-03-26T13:00:41.702Z,4.07
2023-03-26T13:03:12.074Z,6.85
2023-03-26T13:05:47.989Z,5.93
2023-03-26T13:08:33.772Z,4.25
2023-03-26T13:11:09.273Z,6.05
2023-03-26T13:13:39.329Z,6.90
2023-03-26T13:16:25.283Z,8.90
2023-03-26T13:19:04.701Z,3.23
2023-03-26T13:21:42.450Z,2.75
2023-03-26T13:24:18.830Z,2.90
2023-03-26T13:27:06.295Z,3.45
2023-03-26T13:29:39.644Z,4.97
2023-03-26T13:32:23.092Z,2.30
2023-03-26T13:35:09.099Z,2.38
2023-03-26T13:37:55.155Z,3.10
2023-03-26T13:40:25.809Z,3.10
2023-03-26T13:43:05.349Z,4.18
2023-03-26T13:45:55.650Z,2.60
2023-03-26T13:48:43.120Z,14.65
2023-03-26T13:51:17.357Z,4.60
2023-03-26T13:53:48.316Z,3.78
2023-03-26T13:56:18.160Z,5.88
2023-03-26T13:58:54.924Z,4.77
2023-03-26T14:01:23.998Z,3.88
2023-03-26T14:03:56.734Z,4.20
2023-03-26T14:06:23.886Z,2.88
2023-03-26T14:08:54.533Z,3.05
2023-03-26T14:11:23.516Z,3.00
2023-03-26T14:13:54.795Z,1.60
2023-03-26T14:16:27.423Z,2.50
2023-03-26T14:19:01.025Z,2.10
2023-03-26T14:21:48.215Z,2.38
2023-03-26T14:24:35.706Z,1.63
2023-03-26T14:27:13.129Z,2.40
2023-03-26T14:29:59.094Z,3.38
2023-03-26T14:32:29.717Z,4.63
2023-03-26T14:35:20.078Z,2.28
2023-03-26T14:37:47.236Z,2.10
2023-03-26T14:40:17.309Z,1.42
2023-03-26T14:42:53.408Z,1.70
2023-03-26T14:45:21.667Z,2.40
2023-03-26T14:47:56.351Z,3.03
2023-03-26T14:50:31.486Z,3.20
2023-03-26T14:53:01.910Z,2.95
2023-03-26T14:55:42.656Z,4.50
2023-03-26T14:58:15.881Z,4.28
2023-03-26T15:00:56.546Z,3.83
2023-03-26T15:03:51.926Z,1.83
2023-03-26T15:06:38.025Z,1.80
2023-03-26T15:09:24.043Z,1.70
2023-03-26T15:12:12.410Z,2.50
2023-03-26T15:14:52.109Z,2.63
2023-03-26T15:17:28.846Z,1.53
2023-03-26T15:20:05.244Z,2.30
2023-03-26T15:22:32.376Z,2.55
2023-03-26T15:25:11.719Z,2.88
2023-03-26T15:27:57.698Z,1.85
2023-03-26T15:30:29.389Z,1.20
2023-03-26T15:33:18.050Z,1.90
2023-03-26T15:35:45.324Z,2.03
2023-03-26T15:38:31.525Z,2.00
2023-03-26T15:41:02.684Z,1.90
2023-03-26T15:44:01.575Z,1.90
2023-03-26T15:46:54.397Z,6.07
2023-03-26T15:49:27.629Z,3.13
2023-03-26T15:51:59.308Z,2.65
2023-03-26T15:54:36.535Z,1.27
2023-03-26T15:57:09.362Z,5.73
2023-03-26T15:59:40.072Z,4.95
2023-03-26T16:02:07.455Z,2.95
2023-03-26T16:04:54.008Z,2.72
2023-03-26T16:07:39.006Z,3.08
2023-03-26T16:10:20.428Z,2.50
2023-03-26T16:13:07.566Z,2.03
2023-03-26T16:15:35.193Z,3.75
2023-03-26T16:18:25.451Z,3.42
2023-03-26T16:21:01.941Z,2.25
2023-03-26T16:23:47.505Z,2.67
2023-03-26T16:26:19.249Z,2.65
2023-03-26T16:28:49.160Z,4.28
2023-03-26T16:31:36.589Z,6.80
2023-03-26T16:34:08.872Z,7.18
2023-03-26T16:36:37.724Z,6.53
2023-03-26T16:39:05.014Z,5.50
2023-03-26T16:41:32.285Z,3.60
2023-03-26T16:44:18.090Z,1.58
2023-03-26T16:46:53.260Z,1.55
2023-03-26T16:49:26.422Z,4.80
2023-03-26T16:52:08.584Z,3.45
2023-03-26T16:54:42.016Z,6.10
2023-03-26T16:57:26.051Z,3.67
2023-03-26T17:00:07.082Z,2.83
2023-03-26T17:02:36.792Z,3.77
2023-03-26T17:05:09.507Z,2.90
2023-03-26T17:07:40.354Z,6.20
2023-03-26T17:10:16.439Z,4.15
2023-03-26T17:12:47.078Z,3.15
2023-03-26T17:15:32.947Z,1.73
2023-03-26T17:18:19.155Z,2.53
2023-03-26T17:20:59.580Z,2.45
2023-03-26T17:23:49.962Z,1.20
2023-03-26T17:26:17.103Z,1.70
2023-03-26T17:28:51.621Z,4.13
2023-03-26T17:31:18.890Z,3.03
2023-03-26T17:33:46.176Z,2.13
2023-03-26T17:36:13.359Z,4.38
2023-03-26T17:38:40.489Z,3.95
2023-03-26T17:41:12.608Z,4.90
2023-03-26T17:43:52.818Z,2.88
2023-03-26T17:46:30.401Z,3.70
2023-03-26T17:49:01.040Z,6.18
2023-03-26T17:51:41.139Z,9.23
2023-03-26T17:54:09.142Z,2.87
2023-03-26T17:56:37.816Z,2.85
2023-03-26T17:59:11.567Z,2.58
2023-03-26T18:01:41.210Z,4.38
2023-03-26T18:04:12.315Z,3.75
2023-03-26T18:06:47.013Z,2.60
2023-03-26T18:09:36.053Z,3.00
2023-03-26T18:12:03.142Z,4.13
2023-03-26T18:15:05.841Z,4.85
2023-03-26T18:17:40.133Z,1.50
2023-03-26T18:20:09.086Z,1.13
2023-03-26T18:22:36.472Z,4.70
2023-03-26T18:25:04.386Z,3.72
2023-03-26T18:27:37.158Z,4.00
2023-03-26T18:30:15.414Z,1.83
2023-03-26T18:33:12.036Z,1.80
2023-03-26T18:35:52.046Z,2.00
2023-03-26T18:38:36.665Z,0.90
2023-03-26T18:41:06.758Z,2.10
2023-03-26T18:43:35.754Z,1.17
2023-03-26T18:46:12.981Z,1.43
2023-03-26T18:48:40.717Z,1.23
2023-03-26T18:51:08.570Z,1.05
2023-03-26T18:53:45.905Z,0.90
2023-03-26T18:56:39.459Z,1.02
2023-03-26T18:59:08.144Z,1.63
2023-03-26T19:01:36.842Z,0.68
2023-03-26T19:04:08.270Z,1.40
2023-03-26T19:06:39.164Z,0.85
2023-03-26T19:09:16.262Z,0.70
2023-03-26T19:11:49.186Z,1.53
2023-03-26T19:14:21.060Z,0.82
2023-03-26T19:16:51.124Z,0.90
2023-03-26T19:19:23.033Z,1.17
2023-03-26T19:21:50.984Z,1.00
2023-03-26T19:24:19.711Z,1.10
2023-03-26T19:26:47.825Z,0.93
2023-03-26T19:29:16.404Z,0.90
2023-03-26T19:31:43.602Z,0.85
2023-03-26T19:34:13.813Z,1.30
2023-03-26T19:36:58.073Z,1.87
2023-03-26T19:39:36.924Z,1.80
2023-03-26T19:42:06.397Z,1.63
2023-03-26T19:44:33.793Z,1.23
2023-03-26T19:47:06.335Z,2.30
2023-03-26T19:49:49.625Z,0.90
2023-03-26T19:52:20.965Z,1.35
2023-03-26T19:54:59.315Z,1.70
2023-03-26T19:57:26.978Z,2.10
2023-03-26T19:59:55.469Z,2.30
2023-03-26T20:02:23.059Z,2.43
2023-03-26T20:04:50.317Z,1.30
2023-03-26T20:07:35.886Z,1.08
2023-03-26T20:10:08.351Z,1.67
2023-03-26T20:12:35.609Z,0.90
2023-03-26T20:15:02.804Z,0.90
2023-03-26T20:17:31.318Z,0.90
2023-03-26T20:19:58.879Z,1.00
2023-03-26T20:22:26.757Z,0.95
2023-03-26T20:24:54.713Z,1.00
2023-03-26T20:27:22.309Z,0.70
2023-03-26T20:29:49.556Z,0.80
2023-03-26T20:32:25.553Z,1.00
2023-03-26T20:34:54.835Z,1.17
2023-03-26T20:37:21.989Z,0.70
2023-03-26T20:39:49.135Z,0.90
2023-03-26T20:42:16.502Z,0.75
2023-03-26T20:44:43.825Z,0.60
2023-03-26T20:47:11.527Z,0.60
2023-03-26T20:49:38.978Z,0.80
2023-03-26T20:52:06.361Z,0.73
2023-03-26T20:54:33.566Z,0.60
2023-03-26T20:57:02.327Z,0.95
2023-03-26T20:59:30.103Z,0.70
2023-03-26T21:01:59.420Z,0.70
2023-03-26T21:04:27.321Z,0.60
2023-03-26T21:07:00.377Z,1.00
2023-03-26T21:09:35.476Z,0.60
2023-03-26T21:12:07.729Z,1.00
2023-03-26T21:14:43.816Z,0.60
2023-03-26T21:17:18.340Z,1.17
2023-03-26T21:19:46.037Z,0.80
2023-03-26T21:22:20.800Z,1.08
2023-03-26T21:25:03.486Z,0.60
2023-03-26T21:27:34.621Z,0.50
2023-03-26T21:30:01.915Z,0.80
2023-03-26T21:32:31.627Z,0.68
2023-03-26T21:34:59.720Z,0.60
2023-03-26T21:37:27.441Z,0.70
2023-03-26T21:39:54.662Z,0.80
2023-03-26T21:42:22.001Z,0.50
2023-03-26T21:44:49.299Z,0.50
2023-03-26T21:47:16.513Z,0.70
2023-03-26T21:49:43.708Z,0.73
2023-03-26T21:52:14.997Z,0.85
2023-03-26T21:54:43.048Z,0.60
2023-03-26T21:57:10.529Z,0.60
2023-03-26T21:59:37.688Z,0.60
2023-03-26T22:02:10.922Z,0.88
2023-03-26T22:04:49.998Z,0.63
2023-03-26T22:07:19.712Z,0.70
2023-03-26T22:09:47.321Z,0.85
2023-03-26T22:12:14.533Z,0.60
2023-03-26T22:14:41.812Z,0.60
2023-03-26T22:17:09.201Z,1.00
2023-03-26T22:19:36.839Z,0.60
2023-03-26T22:22:04.240Z,0.70
2023-03-26T22:24:32.113Z,0.80
2023-03-26T22:26:59.258Z,0.68
2023-03-26T22:29:27.377Z,0.75
2023-03-26T22:31:54.632Z,0.83
2023-03-26T22:34:23.077Z,1.00
2023-03-26T22:36:50.265Z,0.95
2023-03-26T22:39:18.281Z,0.90
2023-03-26T22:41:45.467Z,1.15
2023-03-26T22:44:20.357Z,0.60
2023-03-26T22:46:49.248Z,0.75
2023-03-26T22:49:16.752Z,0.90
2023-03-26T22:51:43.923Z,1.42
2023-03-26T22:54:11.031Z,1.00
2023-03-26T22:56:38.304Z,0.67
2023-03-26T22:59:05.518Z,0.80
2023-03-26T23:01:32.739Z,0.75
2023-03-26T23:04:00.006Z,0.70
2023-03-26T23:06:27.248Z,0.77
2023-03-26T23:08:56.897Z,1.00
2023-03-26T23:11:24.596Z,0.85
2023-03-26T23:13:51.791Z,0.93
2023-03-26T23:16:20.216Z,0.75
2023-03-26T23:18:47.719Z,0.95
2023-03-26T23:24:00.729Z,0.80
2023-03-26T23:26:34.972Z,1.20
2023-03-26T23:29:05.149Z,0.60
2023-03-26T23:31:32.348Z,0.65
2023-03-26T23:34:00.105Z,0.90
2023-03-26T23:36:27.450Z,0.85
2023-03-26T23:38:54.584Z,0.60
2023-03-26T23:41:23.100Z,0.68
2023-03-26T23:43:54.673Z,0.70
2023-03-26T23:46:23.724Z,0.80
2023-03-26T23:48:51.148Z,1.00
2023-03-26T23:51:22.280Z,0.80
2023-03-26T23:53:49.976Z,0.90
2023-03-26T23:56:17.554Z,0.80
2023-03-26T23:58:44.995Z,0.50
